Aldrich, Missouri
Current Conditions -  °F | °C
As of 11:52 AM on Thursday 27 Nov 2014 (Local Time) from KSGF Reporting Station
Clear Clear  
Wind Chill:   Ceiling: Unl
Heat Index:   Visibility: 10mi
Dew Point: -4°   Wind: 0mph
Humidity: 59%   Direction: NA
Pressure: 30.48"   Gusts: NA
Location:  37.55°N, 93.55°W
Report Text: KSGF 271752Z 00000KT 10SM CLR 03/M04 A3048 RMK AO2 SLP331 T00281044 10028 21011 58006
Loading
Personal Weather Stations






























Interactive Weather Map New forecast layout! Learn more

10-Day Weather Forecast

Advertisements
Track Severe Weather on mobile